sensor_id;sensor_type;location;lat;lon;timestamp;temperature;humidity
39657;DHT22;25337;51.478;7.510;2024-03-22T00:00:55;9.50;99.90
39657;DHT22;25337;51.478;7.510;2024-03-22T00:03:21;9.50;99.90
39657;DHT22;25337;51.478;7.510;2024-03-22T00:05:47;9.50;99.90
39657;DHT22;25337;51.478;7.510;2024-03-22T00:08:13;9.50;99.90
39657;DHT22;25337;51.478;7.510;2024-03-22T00:10:38;9.50;99.90
39657;DHT22;25337;51.478;7.510;2024-03-22T00:13:04;9.50;99.90
39657;DHT22;25337;51.478;7.510;2024-03-22T00:15:30;9.60;99.90
39657;DHT22;25337;51.478;7.510;2024-03-22T00:17:55;9.70;99.90
39657;DHT22;25337;51.478;7.510;2024-03-22T00:20:22;9.60;99.90
39657;DHT22;25337;51.478;7.510;2024-03-22T00:22:47;9.60;99.90
39657;DHT22;25337;51.478;7.510;2024-03-22T00:25:13;9.60;99.90
39657;DHT22;25337;51.478;7.510;2024-03-22T00:27:39;9.50;99.90
39657;DHT22;25337;51.478;7.510;2024-03-22T00:30:05;9.60;99.90
39657;DHT22;25337;51.478;7.510;2024-03-22T00:32:30;9.60;99.90
39657;DHT22;25337;51.478;7.510;2024-03-22T00:34:56;9.60;99.90
39657;DHT22;25337;51.478;7.510;2024-03-22T00:37:22;9.50;99.90
39657;DHT22;25337;51.478;7.510;2024-03-22T00:39:47;9.50;99.90
39657;DHT22;25337;51.478;7.510;2024-03-22T00:42:13;9.60;99.90
39657;DHT22;25337;51.478;7.510;2024-03-22T00:44:38;9.50;99.90
39657;DHT22;25337;51.478;7.510;2024-03-22T00:47:04;9.50;99.90
39657;DHT22;25337;51.478;7.510;2024-03-22T00:49:31;9.50;99.90
39657;DHT22;25337;51.478;7.510;2024-03-22T00:51:56;9.60;99.90
39657;DHT22;25337;51.478;7.510;2024-03-22T00:54:23;9.60;99.90
39657;DHT22;25337;51.478;7.510;2024-03-22T00:56:48;9.60;99.90
39657;DHT22;25337;51.478;7.510;2024-03-22T00:59:14;9.60;99.90
39657;DHT22;25337;51.478;7.510;2024-03-22T01:01:40;9.70;99.90
39657;DHT22;25337;51.478;7.510;2024-03-22T01:04:05;9.70;99.90
39657;DHT22;25337;51.478;7.510;2024-03-22T01:06:31;9.80;99.90
39657;DHT22;25337;51.478;7.510;2024-03-22T01:08:56;9.90;99.90
39657;DHT22;25337;51.478;7.510;2024-03-22T01:11:22;10.00;99.90
39657;DHT22;25337;51.478;7.510;2024-03-22T01:13:47;10.10;99.90
39657;DHT22;25337;51.478;7.510;2024-03-22T01:16:13;10.10;99.90
39657;DHT22;25337;51.478;7.510;2024-03-22T01:18:39;10.10;99.90
39657;DHT22;25337;51.478;7.510;2024-03-22T01:21:05;10.20;99.90
39657;DHT22;25337;51.478;7.510;2024-03-22T01:23:31;10.30;99.90
39657;DHT22;25337;51.478;7.510;2024-03-22T01:25:56;10.30;99.90
39657;DHT22;25337;51.478;7.510;2024-03-22T01:28:22;10.30;99.90
39657;DHT22;25337;51.478;7.510;2024-03-22T01:30:48;10.30;99.90
39657;DHT22;25337;51.478;7.510;2024-03-22T01:33:13;10.40;99.90
39657;DHT22;25337;51.478;7.510;2024-03-22T01:35:39;10.40;99.90
39657;DHT22;25337;51.478;7.510;2024-03-22T01:38:04;10.40;99.90
39657;DHT22;25337;51.478;7.510;2024-03-22T01:40:30;10.40;99.90
39657;DHT22;25337;51.478;7.510;2024-03-22T01:42:57;10.40;99.90
39657;DHT22;25337;51.478;7.510;2024-03-22T01:45:24;10.40;99.90
39657;DHT22;25337;51.478;7.510;2024-03-22T01:47:54;10.40;99.90
39657;DHT22;25337;51.478;7.510;2024-03-22T01:50:21;10.40;99.90
39657;DHT22;25337;51.478;7.510;2024-03-22T01:52:47;10.40;99.90
39657;DHT22;25337;51.478;7.510;2024-03-22T01:55:13;10.40;99.90
39657;DHT22;25337;51.478;7.510;2024-03-22T01:57:39;10.30;99.90
39657;DHT22;25337;51.478;7.510;2024-03-22T02:00:06;10.30;99.90
39657;DHT22;25337;51.478;7.510;2024-03-22T02:02:34;10.30;99.90
39657;DHT22;25337;51.478;7.510;2024-03-22T02:04:59;10.40;99.90
39657;DHT22;25337;51.478;7.510;2024-03-22T02:07:27;10.40;99.90
39657;DHT22;25337;51.478;7.510;2024-03-22T02:09:55;10.40;99.90
39657;DHT22;25337;51.478;7.510;2024-03-22T02:12:20;10.50;99.90
39657;DHT22;25337;51.478;7.510;2024-03-22T02:14:46;10.50;99.90
39657;DHT22;25337;51.478;7.510;2024-03-22T02:17:12;10.60;99.90
39657;DHT22;25337;51.478;7.510;2024-03-22T02:19:37;10.50;99.90
39657;DHT22;25337;51.478;7.510;2024-03-22T02:22:03;10.60;99.90
39657;DHT22;25337;51.478;7.510;2024-03-22T02:24:28;10.60;99.90
39657;DHT22;25337;51.478;7.510;2024-03-22T02:26:54;10.60;99.90
39657;DHT22;25337;51.478;7.510;2024-03-22T02:29:20;10.60;99.90
39657;DHT22;25337;51.478;7.510;2024-03-22T02:31:45;10.60;99.90
39657;DHT22;25337;51.478;7.510;2024-03-22T02:34:11;10.60;99.90
39657;DHT22;25337;51.478;7.510;2024-03-22T02:36:36;10.60;99.90
39657;DHT22;25337;51.478;7.510;2024-03-22T02:39:02;10.50;99.90
39657;DHT22;25337;51.478;7.510;2024-03-22T02:41:28;10.50;99.90
39657;DHT22;25337;51.478;7.510;2024-03-22T02:43:53;10.60;99.90
39657;DHT22;25337;51.478;7.510;2024-03-22T02:46:19;10.50;99.90
39657;DHT22;25337;51.478;7.510;2024-03-22T02:48:44;10.50;99.90
39657;DHT22;25337;51.478;7.510;2024-03-22T02:51:10;10.50;99.90
39657;DHT22;25337;51.478;7.510;2024-03-22T02:53:35;10.50;99.90
39657;DHT22;25337;51.478;7.510;2024-03-22T02:56:01;10.60;99.90
39657;DHT22;25337;51.478;7.510;2024-03-22T02:58:26;10.50;99.90
39657;DHT22;25337;51.478;7.510;2024-03-22T03:00:52;10.60;99.90
39657;DHT22;25337;51.478;7.510;2024-03-22T03:03:18;10.50;99.90
39657;DHT22;25337;51.478;7.510;2024-03-22T03:05:46;10.60;99.90
39657;DHT22;25337;51.478;7.510;2024-03-22T03:08:12;10.60;99.90
39657;DHT22;25337;51.478;7.510;2024-03-22T03:10:37;10.60;99.90
39657;DHT22;25337;51.478;7.510;2024-03-22T03:13:03;10.60;99.90
39657;DHT22;25337;51.478;7.510;2024-03-22T03:15:29;10.50;99.90
39657;DHT22;25337;51.478;7.510;2024-03-22T03:17:54;10.60;99.90
39657;DHT22;25337;51.478;7.510;2024-03-22T03:20:20;10.60;99.90
39657;DHT22;25337;51.478;7.510;2024-03-22T03:22:46;10.60;99.90
39657;DHT22;25337;51.478;7.510;2024-03-22T03:25:11;10.60;99.90
39657;DHT22;25337;51.478;7.510;2024-03-22T03:27:37;10.60;99.90
39657;DHT22;25337;51.478;7.510;2024-03-22T03:30:03;10.50;99.90
39657;DHT22;25337;51.478;7.510;2024-03-22T03:32:28;10.50;99.90
39657;DHT22;25337;51.478;7.510;2024-03-22T03:34:54;10.60;99.90
39657;DHT22;25337;51.478;7.510;2024-03-22T03:37:20;10.60;99.90
39657;DHT22;25337;51.478;7.510;2024-03-22T03:39:45;10.60;99.90
39657;DHT22;25337;51.478;7.510;2024-03-22T03:42:11;10.60;99.90
39657;DHT22;25337;51.478;7.510;2024-03-22T03:44:37;10.60;99.90
39657;DHT22;25337;51.478;7.510;2024-03-22T03:47:02;10.60;99.90
39657;DHT22;25337;51.478;7.510;2024-03-22T03:49:28;10.60;99.90
39657;DHT22;25337;51.478;7.510;2024-03-22T03:51:54;10.60;99.90
39657;DHT22;25337;51.478;7.510;2024-03-22T03:54:19;10.60;99.90
39657;DHT22;25337;51.478;7.510;2024-03-22T03:56:45;10.60;99.90
39657;DHT22;25337;51.478;7.510;2024-03-22T03:59:11;10.70;99.90
39657;DHT22;25337;51.478;7.510;2024-03-22T04:01:36;10.60;99.90
39657;DHT22;25337;51.478;7.510;2024-03-22T04:04:03;10.60;99.90
39657;DHT22;25337;51.478;7.510;2024-03-22T04:06:28;10.50;99.90
39657;DHT22;25337;51.478;7.510;2024-03-22T04:08:54;10.60;99.90
39657;DHT22;25337;51.478;7.510;2024-03-22T04:11:20;10.50;99.90
39657;DHT22;25337;51.478;7.510;2024-03-22T04:13:45;10.60;99.90
39657;DHT22;25337;51.478;7.510;2024-03-22T04:16:12;10.50;99.90
39657;DHT22;25337;51.478;7.510;2024-03-22T04:18:38;10.40;99.90
39657;DHT22;25337;51.478;7.510;2024-03-22T04:21:04;10.40;99.90
39657;DHT22;25337;51.478;7.510;2024-03-22T04:23:30;10.30;99.90
39657;DHT22;25337;51.478;7.510;2024-03-22T04:25:57;10.30;99.90
39657;DHT22;25337;51.478;7.510;2024-03-22T04:28:24;10.30;99.90
39657;DHT22;25337;51.478;7.510;2024-03-22T04:31:00;10.40;99.90
39657;DHT22;25337;51.478;7.510;2024-03-22T04:33:27;10.40;99.90
39657;DHT22;25337;51.478;7.510;2024-03-22T04:35:54;10.40;99.90
39657;DHT22;25337;51.478;7.510;2024-03-22T04:38:20;10.50;99.90
39657;DHT22;25337;51.478;7.510;2024-03-22T04:40:45;10.40;99.90
39657;DHT22;25337;51.478;7.510;2024-03-22T04:43:11;10.40;99.90
39657;DHT22;25337;51.478;7.510;2024-03-22T04:45:36;10.40;99.90
39657;DHT22;25337;51.478;7.510;2024-03-22T04:48:04;10.40;99.90
39657;DHT22;25337;51.478;7.510;2024-03-22T04:50:30;10.40;99.90
39657;DHT22;25337;51.478;7.510;2024-03-22T04:52:55;10.40;99.90
39657;DHT22;25337;51.478;7.510;2024-03-22T04:55:21;10.40;99.90
39657;DHT22;25337;51.478;7.510;2024-03-22T04:57:47;10.40;99.90
39657;DHT22;25337;51.478;7.510;2024-03-22T05:00:13;10.50;99.90
39657;DHT22;25337;51.478;7.510;2024-03-22T05:02:38;10.50;99.90
39657;DHT22;25337;51.478;7.510;2024-03-22T05:05:05;10.60;99.90
39657;DHT22;25337;51.478;7.510;2024-03-22T05:07:31;10.60;99.90
39657;DHT22;25337;51.478;7.510;2024-03-22T05:09:57;10.60;99.90
39657;DHT22;25337;51.478;7.510;2024-03-22T05:12:22;10.60;99.90
39657;DHT22;25337;51.478;7.510;2024-03-22T05:14:48;10.60;99.90
39657;DHT22;25337;51.478;7.510;2024-03-22T05:17:13;10.60;99.90
39657;DHT22;25337;51.478;7.510;2024-03-22T05:19:39;10.60;99.90
39657;DHT22;25337;51.478;7.510;2024-03-22T05:22:05;10.60;99.90
39657;DHT22;25337;51.478;7.510;2024-03-22T05:24:31;10.60;99.90
39657;DHT22;25337;51.478;7.510;2024-03-22T05:26:57;10.60;99.90
39657;DHT22;25337;51.478;7.510;2024-03-22T05:29:23;10.60;99.90
39657;DHT22;25337;51.478;7.510;2024-03-22T05:31:49;10.60;99.90
39657;DHT22;25337;51.478;7.510;2024-03-22T05:34:17;10.70;99.90
39657;DHT22;25337;51.478;7.510;2024-03-22T05:36:43;10.70;99.90
39657;DHT22;25337;51.478;7.510;2024-03-22T05:39:09;10.70;99.90
39657;DHT22;25337;51.478;7.510;2024-03-22T05:41:36;10.60;99.90
39657;DHT22;25337;51.478;7.510;2024-03-22T05:44:02;10.60;99.90
39657;DHT22;25337;51.478;7.510;2024-03-22T05:46:28;10.70;99.90
39657;DHT22;25337;51.478;7.510;2024-03-22T05:48:54;10.70;99.90
39657;DHT22;25337;51.478;7.510;2024-03-22T05:51:20;10.70;99.90
39657;DHT22;25337;51.478;7.510;2024-03-22T05:53:45;10.70;99.90
39657;DHT22;25337;51.478;7.510;2024-03-22T05:56:11;10.80;99.90
39657;DHT22;25337;51.478;7.510;2024-03-22T05:58:37;10.80;99.90
39657;DHT22;25337;51.478;7.510;2024-03-22T06:01:02;10.90;99.90
39657;DHT22;25337;51.478;7.510;2024-03-22T06:03:29;10.90;99.90
39657;DHT22;25337;51.478;7.510;2024-03-22T06:05:54;10.90;99.90
39657;DHT22;25337;51.478;7.510;2024-03-22T06:08:24;10.90;99.90
39657;DHT22;25337;51.478;7.510;2024-03-22T06:10:52;11.00;99.90
39657;DHT22;25337;51.478;7.510;2024-03-22T06:13:17;11.10;99.90
39657;DHT22;25337;51.478;7.510;2024-03-22T06:15:44;11.20;99.90
39657;DHT22;25337;51.478;7.510;2024-03-22T06:18:12;11.20;99.90
39657;DHT22;25337;51.478;7.510;2024-03-22T06:20:38;11.30;99.90
39657;DHT22;25337;51.478;7.510;2024-03-22T06:23:04;11.20;99.90
39657;DHT22;25337;51.478;7.510;2024-03-22T06:25:29;11.30;99.90
39657;DHT22;25337;51.478;7.510;2024-03-22T06:27:55;11.40;99.90
39657;DHT22;25337;51.478;7.510;2024-03-22T06:30:20;11.40;99.90
39657;DHT22;25337;51.478;7.510;2024-03-22T06:32:46;11.40;99.90
39657;DHT22;25337;51.478;7.510;2024-03-22T06:35:12;11.50;99.90
39657;DHT22;25337;51.478;7.510;2024-03-22T06:37:39;11.60;99.90
39657;DHT22;25337;51.478;7.510;2024-03-22T06:40:06;11.70;99.90
39657;DHT22;25337;51.478;7.510;2024-03-22T06:42:32;11.80;99.90
39657;DHT22;25337;51.478;7.510;2024-03-22T06:44:58;11.80;99.90
39657;DHT22;25337;51.478;7.510;2024-03-22T06:47:23;11.90;99.90
39657;DHT22;25337;51.478;7.510;2024-03-22T06:49:49;12.00;99.90
39657;DHT22;25337;51.478;7.510;2024-03-22T06:52:15;12.00;99.90
39657;DHT22;25337;51.478;7.510;2024-03-22T06:54:41;12.00;99.90
39657;DHT22;25337;51.478;7.510;2024-03-22T06:57:06;12.10;99.90
39657;DHT22;25337;51.478;7.510;2024-03-22T06:59:32;12.10;99.90
39657;DHT22;25337;51.478;7.510;2024-03-22T07:01:58;12.10;99.90
39657;DHT22;25337;51.478;7.510;2024-03-22T07:04:23;12.20;99.90
39657;DHT22;25337;51.478;7.510;2024-03-22T07:06:49;12.30;99.90
39657;DHT22;25337;51.478;7.510;2024-03-22T07:09:14;12.30;99.90
39657;DHT22;25337;51.478;7.510;2024-03-22T07:11:41;12.40;99.90
39657;DHT22;25337;51.478;7.510;2024-03-22T07:14:06;12.50;99.90
39657;DHT22;25337;51.478;7.510;2024-03-22T07:16:32;12.50;99.90
39657;DHT22;25337;51.478;7.510;2024-03-22T07:18:58;12.50;99.90
39657;DHT22;25337;51.478;7.510;2024-03-22T07:21:24;12.60;99.90
39657;DHT22;25337;51.478;7.510;2024-03-22T07:23:49;12.60;99.90
39657;DHT22;25337;51.478;7.510;2024-03-22T07:26:15;12.60;99.90
39657;DHT22;25337;51.478;7.510;2024-03-22T07:28:41;12.70;99.90
39657;DHT22;25337;51.478;7.510;2024-03-22T07:31:06;12.70;99.90
39657;DHT22;25337;51.478;7.510;2024-03-22T07:33:33;12.70;99.90
39657;DHT22;25337;51.478;7.510;2024-03-22T07:36:05;12.80;99.90
39657;DHT22;25337;51.478;7.510;2024-03-22T07:38:31;12.80;99.90
39657;DHT22;25337;51.478;7.510;2024-03-22T07:40:57;12.90;99.90
39657;DHT22;25337;51.478;7.510;2024-03-22T07:43:22;13.00;99.90
39657;DHT22;25337;51.478;7.510;2024-03-22T07:45:48;13.10;99.90
39657;DHT22;25337;51.478;7.510;2024-03-22T07:48:13;13.20;99.90
39657;DHT22;25337;51.478;7.510;2024-03-22T07:50:39;13.30;99.90
39657;DHT22;25337;51.478;7.510;2024-03-22T07:53:05;13.30;99.90
39657;DHT22;25337;51.478;7.510;2024-03-22T07:55:30;13.50;99.90
39657;DHT22;25337;51.478;7.510;2024-03-22T07:57:56;13.60;99.90
39657;DHT22;25337;51.478;7.510;2024-03-22T08:00:23;13.50;99.90
39657;DHT22;25337;51.478;7.510;2024-03-22T08:02:51;13.40;99.90
39657;DHT22;25337;51.478;7.510;2024-03-22T08:05:16;13.60;99.90
39657;DHT22;25337;51.478;7.510;2024-03-22T08:07:42;13.60;99.90
39657;DHT22;25337;51.478;7.510;2024-03-22T08:10:09;13.60;99.90
39657;DHT22;25337;51.478;7.510;2024-03-22T08:12:35;13.70;99.90
39657;DHT22;25337;51.478;7.510;2024-03-22T08:15:01;13.60;99.90
39657;DHT22;25337;51.478;7.510;2024-03-22T08:17:27;13.70;99.90
39657;DHT22;25337;51.478;7.510;2024-03-22T08:19:52;13.80;99.90
39657;DHT22;25337;51.478;7.510;2024-03-22T08:22:18;13.90;99.90
39657;DHT22;25337;51.478;7.510;2024-03-22T08:24:45;14.00;99.90
39657;DHT22;25337;51.478;7.510;2024-03-22T08:27:11;13.90;99.90
39657;DHT22;25337;51.478;7.510;2024-03-22T08:29:37;14.10;99.90
39657;DHT22;25337;51.478;7.510;2024-03-22T08:32:13;14.00;99.90
39657;DHT22;25337;51.478;7.510;2024-03-22T08:34:38;14.20;99.90
39657;DHT22;25337;51.478;7.510;2024-03-22T08:37:04;14.20;99.90
39657;DHT22;25337;51.478;7.510;2024-03-22T08:39:30;14.40;99.90
39657;DHT22;25337;51.478;7.510;2024-03-22T08:41:56;14.30;99.90
39657;DHT22;25337;51.478;7.510;2024-03-22T08:44:22;14.30;99.90
39657;DHT22;25337;51.478;7.510;2024-03-22T08:46:47;14.30;99.90
39657;DHT22;25337;51.478;7.510;2024-03-22T08:49:14;14.20;99.90
39657;DHT22;25337;51.478;7.510;2024-03-22T08:51:40;14.20;99.90
39657;DHT22;25337;51.478;7.510;2024-03-22T08:54:06;14.30;99.90
39657;DHT22;25337;51.478;7.510;2024-03-22T08:56:32;14.30;99.90
39657;DHT22;25337;51.478;7.510;2024-03-22T08:58:59;14.20;99.90
39657;DHT22;25337;51.478;7.510;2024-03-22T09:01:24;14.10;99.90
39657;DHT22;25337;51.478;7.510;2024-03-22T09:03:50;14.20;99.90
39657;DHT22;25337;51.478;7.510;2024-03-22T09:06:16;14.20;99.90
39657;DHT22;25337;51.478;7.510;2024-03-22T09:08:42;14.30;99.90
39657;DHT22;25337;51.478;7.510;2024-03-22T09:11:07;14.40;99.90
39657;DHT22;25337;51.478;7.510;2024-03-22T09:13:33;14.50;99.90
39657;DHT22;25337;51.478;7.510;2024-03-22T09:16:00;14.50;99.90
39657;DHT22;25337;51.478;7.510;2024-03-22T09:18:27;14.40;99.90
39657;DHT22;25337;51.478;7.510;2024-03-22T09:20:53;14.40;99.90
39657;DHT22;25337;51.478;7.510;2024-03-22T09:23:19;14.40;99.90
39657;DHT22;25337;51.478;7.510;2024-03-22T09:25:48;14.40;99.90
39657;DHT22;25337;51.478;7.510;2024-03-22T09:28:14;14.40;99.90
39657;DHT22;25337;51.478;7.510;2024-03-22T09:30:40;14.50;99.90
39657;DHT22;25337;51.478;7.510;2024-03-22T09:33:06;14.50;99.90
39657;DHT22;25337;51.478;7.510;2024-03-22T09:35:35;14.70;99.90
39657;DHT22;25337;51.478;7.510;2024-03-22T09:38:01;14.70;99.90
39657;DHT22;25337;51.478;7.510;2024-03-22T09:40:28;14.80;99.90
39657;DHT22;25337;51.478;7.510;2024-03-22T09:42:53;15.10;99.90
39657;DHT22;25337;51.478;7.510;2024-03-22T09:45:19;15.30;99.90
39657;DHT22;25337;51.478;7.510;2024-03-22T09:47:48;15.40;99.90
39657;DHT22;25337;51.478;7.510;2024-03-22T09:50:14;15.50;99.90
39657;DHT22;25337;51.478;7.510;2024-03-22T09:52:41;15.60;99.90
39657;DHT22;25337;51.478;7.510;2024-03-22T09:55:08;15.40;99.90
39657;DHT22;25337;51.478;7.510;2024-03-22T09:57:37;15.60;99.90
39657;DHT22;25337;51.478;7.510;2024-03-22T10:00:07;15.80;99.90
39657;DHT22;25337;51.478;7.510;2024-03-22T10:02:34;15.80;99.90
39657;DHT22;25337;51.478;7.510;2024-03-22T10:05:00;15.70;99.90
39657;DHT22;25337;51.478;7.510;2024-03-22T10:07:28;15.80;99.90
39657;DHT22;25337;51.478;7.510;2024-03-22T10:09:53;15.70;99.90
39657;DHT22;25337;51.478;7.510;2024-03-22T10:12:19;15.50;99.90
39657;DHT22;25337;51.478;7.510;2024-03-22T10:14:46;15.40;99.90
39657;DHT22;25337;51.478;7.510;2024-03-22T10:17:11;15.50;99.90
39657;DHT22;25337;51.478;7.510;2024-03-22T10:19:37;15.50;99.90
39657;DHT22;25337;51.478;7.510;2024-03-22T10:22:03;15.40;99.90
39657;DHT22;25337;51.478;7.510;2024-03-22T10:24:29;15.30;99.90
39657;DHT22;25337;51.478;7.510;2024-03-22T10:26:56;15.30;99.90
39657;DHT22;25337;51.478;7.510;2024-03-22T10:29:22;15.30;99.90
39657;DHT22;25337;51.478;7.510;2024-03-22T10:31:49;15.50;99.90
39657;DHT22;25337;51.478;7.510;2024-03-22T10:34:16;15.70;99.90
39657;DHT22;25337;51.478;7.510;2024-03-22T10:36:44;15.90;99.90
39657;DHT22;25337;51.478;7.510;2024-03-22T10:39:11;16.10;99.90
39657;DHT22;25337;51.478;7.510;2024-03-22T10:41:38;16.40;99.90
39657;DHT22;25337;51.478;7.510;2024-03-22T10:44:03;16.30;99.90
39657;DHT22;25337;51.478;7.510;2024-03-22T10:46:30;16.40;99.90
39657;DHT22;25337;51.478;7.510;2024-03-22T10:48:57;16.60;99.90
39657;DHT22;25337;51.478;7.510;2024-03-22T10:51:24;16.50;99.90
39657;DHT22;25337;51.478;7.510;2024-03-22T10:53:53;16.50;99.80
39657;DHT22;25337;51.478;7.510;2024-03-22T10:56:21;16.20;99.80
39657;DHT22;25337;51.478;7.510;2024-03-22T10:58:47;15.90;99.90
39657;DHT22;25337;51.478;7.510;2024-03-22T11:01:27;15.80;99.90
39657;DHT22;25337;51.478;7.510;2024-03-22T11:04:06;15.70;99.90
39657;DHT22;25337;51.478;7.510;2024-03-22T11:06:37;15.70;99.90
39657;DHT22;25337;51.478;7.510;2024-03-22T11:09:03;15.80;99.90
39657;DHT22;25337;51.478;7.510;2024-03-22T11:11:32;15.80;99.90
39657;DHT22;25337;51.478;7.510;2024-03-22T11:14:03;15.90;99.90
39657;DHT22;25337;51.478;7.510;2024-03-22T11:16:28;15.90;99.90
39657;DHT22;25337;51.478;7.510;2024-03-22T11:18:55;15.80;99.90
39657;DHT22;25337;51.478;7.510;2024-03-22T11:21:20;15.90;99.90
39657;DHT22;25337;51.478;7.510;2024-03-22T11:23:46;16.10;99.90
39657;DHT22;25337;51.478;7.510;2024-03-22T11:26:12;16.10;99.80
39657;DHT22;25337;51.478;7.510;2024-03-22T11:28:42;16.20;99.90
39657;DHT22;25337;51.478;7.510;2024-03-22T11:31:08;16.30;99.60
39657;DHT22;25337;51.478;7.510;2024-03-22T11:33:33;16.40;98.40
39657;DHT22;25337;51.478;7.510;2024-03-22T11:36:00;16.40;98.90
39657;DHT22;25337;51.478;7.510;2024-03-22T11:38:26;16.50;98.70
39657;DHT22;25337;51.478;7.510;2024-03-22T11:40:53;16.60;98.80
39657;DHT22;25337;51.478;7.510;2024-03-22T11:43:19;16.70;97.70
39657;DHT22;25337;51.478;7.510;2024-03-22T11:45:45;16.50;98.70
39657;DHT22;25337;51.478;7.510;2024-03-22T11:48:11;16.90;98.80
39657;DHT22;25337;51.478;7.510;2024-03-22T11:50:40;17.20;97.40
39657;DHT22;25337;51.478;7.510;2024-03-22T11:53:06;17.10;97.80
39657;DHT22;25337;51.478;7.510;2024-03-22T11:55:32;16.90;98.90
39657;DHT22;25337;51.478;7.510;2024-03-22T11:57:58;16.80;99.20
39657;DHT22;25337;51.478;7.510;2024-03-22T12:00:24;16.70;99.90
39657;DHT22;25337;51.478;7.510;2024-03-22T12:02:51;16.50;99.70
39657;DHT22;25337;51.478;7.510;2024-03-22T12:05:20;16.30;99.90
39657;DHT22;25337;51.478;7.510;2024-03-22T12:07:46;16.40;99.70
39657;DHT22;25337;51.478;7.510;2024-03-22T12:10:12;16.20;99.90
39657;DHT22;25337;51.478;7.510;2024-03-22T12:12:37;16.20;99.90
39657;DHT22;25337;51.478;7.510;2024-03-22T12:15:04;15.80;99.90
39657;DHT22;25337;51.478;7.510;2024-03-22T12:17:30;15.70;99.90
39657;DHT22;25337;51.478;7.510;2024-03-22T12:19:55;15.60;99.90
39657;DHT22;25337;51.478;7.510;2024-03-22T12:22:22;15.50;99.90
39657;DHT22;25337;51.478;7.510;2024-03-22T12:24:48;15.50;99.90
39657;DHT22;25337;51.478;7.510;2024-03-22T12:27:13;15.40;99.90
39657;DHT22;25337;51.478;7.510;2024-03-22T12:29:39;15.40;99.90
39657;DHT22;25337;51.478;7.510;2024-03-22T12:32:05;15.50;99.90
39657;DHT22;25337;51.478;7.510;2024-03-22T12:34:32;15.50;99.90
39657;DHT22;25337;51.478;7.510;2024-03-22T12:37:01;15.30;99.90
39657;DHT22;25337;51.478;7.510;2024-03-22T12:39:28;15.30;99.90
39657;DHT22;25337;51.478;7.510;2024-03-22T12:41:53;15.00;99.90
39657;DHT22;25337;51.478;7.510;2024-03-22T12:44:20;14.90;99.90
39657;DHT22;25337;51.478;7.510;2024-03-22T12:46:46;14.70;99.90
39657;DHT22;25337;51.478;7.510;2024-03-22T12:49:11;14.70;99.90
39657;DHT22;25337;51.478;7.510;2024-03-22T12:51:37;14.70;99.90
39657;DHT22;25337;51.478;7.510;2024-03-22T12:54:03;14.80;99.90
39657;DHT22;25337;51.478;7.510;2024-03-22T12:56:30;14.70;99.90
39657;DHT22;25337;51.478;7.510;2024-03-22T12:58:56;14.60;99.90
39657;DHT22;25337;51.478;7.510;2024-03-22T13:01:21;14.60;99.90
39657;DHT22;25337;51.478;7.510;2024-03-22T13:03:47;14.50;99.90
39657;DHT22;25337;51.478;7.510;2024-03-22T13:06:13;14.50;99.90
39657;DHT22;25337;51.478;7.510;2024-03-22T13:08:38;14.50;99.90
39657;DHT22;25337;51.478;7.510;2024-03-22T13:11:04;14.60;99.90
39657;DHT22;25337;51.478;7.510;2024-03-22T13:13:30;14.70;99.90
39657;DHT22;25337;51.478;7.510;2024-03-22T13:15:59;14.60;99.90
39657;DHT22;25337;51.478;7.510;2024-03-22T13:18:27;14.60;99.90
39657;DHT22;25337;51.478;7.510;2024-03-22T13:20:54;14.60;99.90
39657;DHT22;25337;51.478;7.510;2024-03-22T13:23:19;14.50;99.90
39657;DHT22;25337;51.478;7.510;2024-03-22T13:25:45;14.50;99.90
39657;DHT22;25337;51.478;7.510;2024-03-22T13:28:11;14.30;99.90
39657;DHT22;25337;51.478;7.510;2024-03-22T13:30:36;14.20;99.90
39657;DHT22;25337;51.478;7.510;2024-03-22T13:33:03;14.10;99.90
39657;DHT22;25337;51.478;7.510;2024-03-22T13:35:29;14.00;99.90
39657;DHT22;25337;51.478;7.510;2024-03-22T13:37:54;13.80;99.90
39657;DHT22;25337;51.478;7.510;2024-03-22T13:40:21;13.70;99.90
39657;DHT22;25337;51.478;7.510;2024-03-22T13:42:46;13.40;99.90
39657;DHT22;25337;51.478;7.510;2024-03-22T13:45:12;13.30;99.90
39657;DHT22;25337;51.478;7.510;2024-03-22T13:47:38;13.20;99.90
39657;DHT22;25337;51.478;7.510;2024-03-22T13:50:06;13.20;99.90
39657;DHT22;25337;51.478;7.510;2024-03-22T13:52:34;13.10;99.90
39657;DHT22;25337;51.478;7.510;2024-03-22T13:55:00;13.10;99.90
39657;DHT22;25337;51.478;7.510;2024-03-22T13:57:26;13.00;99.90
39657;DHT22;25337;51.478;7.510;2024-03-22T13:59:52;12.80;99.90
39657;DHT22;25337;51.478;7.510;2024-03-22T14:02:18;12.80;99.90
39657;DHT22;25337;51.478;7.510;2024-03-22T14:04:45;12.70;99.90
39657;DHT22;25337;51.478;7.510;2024-03-22T14:07:11;12.60;99.90
39657;DHT22;25337;51.478;7.510;2024-03-22T14:09:36;12.50;99.90
39657;DHT22;25337;51.478;7.510;2024-03-22T14:12:02;12.40;99.90
39657;DHT22;25337;51.478;7.510;2024-03-22T14:14:28;12.40;99.90
39657;DHT22;25337;51.478;7.510;2024-03-22T14:16:54;12.30;99.90
39657;DHT22;25337;51.478;7.510;2024-03-22T14:19:20;12.30;99.90
39657;DHT22;25337;51.478;7.510;2024-03-22T14:21:46;12.30;99.90
39657;DHT22;25337;51.478;7.510;2024-03-22T14:24:12;12.30;99.90
39657;DHT22;25337;51.478;7.510;2024-03-22T14:26:37;12.40;99.90
39657;DHT22;25337;51.478;7.510;2024-03-22T14:29:11;12.30;99.90
39657;DHT22;25337;51.478;7.510;2024-03-22T14:31:37;12.30;99.90
39657;DHT22;25337;51.478;7.510;2024-03-22T14:34:04;12.30;99.90
39657;DHT22;25337;51.478;7.510;2024-03-22T14:36:31;12.20;99.90
39657;DHT22;25337;51.478;7.510;2024-03-22T14:38:57;12.20;99.90
39657;DHT22;25337;51.478;7.510;2024-03-22T14:41:23;12.20;99.90
39657;DHT22;25337;51.478;7.510;2024-03-22T14:43:49;12.10;99.90
39657;DHT22;25337;51.478;7.510;2024-03-22T14:46:15;12.10;99.90
39657;DHT22;25337;51.478;7.510;2024-03-22T14:48:41;12.10;99.90
39657;DHT22;25337;51.478;7.510;2024-03-22T14:51:07;12.00;99.90
39657;DHT22;25337;51.478;7.510;2024-03-22T14:53:34;12.00;99.90
39657;DHT22;25337;51.478;7.510;2024-03-22T14:56:02;12.00;99.90
39657;DHT22;25337;51.478;7.510;2024-03-22T14:58:34;12.00;99.90
39657;DHT22;25337;51.478;7.510;2024-03-22T15:01:01;12.00;99.90
39657;DHT22;25337;51.478;7.510;2024-03-22T15:03:28;12.00;99.90
39657;DHT22;25337;51.478;7.510;2024-03-22T15:05:58;11.90;99.90
39657;DHT22;25337;51.478;7.510;2024-03-22T15:08:27;11.80;99.90
39657;DHT22;25337;51.478;7.510;2024-03-22T15:10:53;11.60;99.90
39657;DHT22;25337;51.478;7.510;2024-03-22T15:13:19;11.40;99.90
39657;DHT22;25337;51.478;7.510;2024-03-22T15:15:55;11.30;99.90
39657;DHT22;25337;51.478;7.510;2024-03-22T15:18:22;11.10;99.90
39657;DHT22;25337;51.478;7.510;2024-03-22T15:20:48;10.90;99.90
39657;DHT22;25337;51.478;7.510;2024-03-22T15:23:14;10.80;99.90
39657;DHT22;25337;51.478;7.510;2024-03-22T15:25:43;10.70;99.90